Terminal Aerodrome Forecast
Issued by NWS Louisville, KY

Home | Current Version | Previous Version | Text Only | Print | Product List | Glossary On
Versions: 1 2 3 4 5 6 7 8 9 10 11 12 13 14 15 16 17
014
FTUS43 KLMK 281128
TAFSDF
TAF
KSDF 281128Z 2812/2918 16007KT P6SM VCSH BKN060
     FM281700 20010KT P6SM VCSH BKN070
     FM290000 18004KT P6SM BKN250
     FM291300 22007KT P6SM SKC=

USA.gov is the U.S. government's official web portal to all federal, state and local government web resources and services.